Список аэропортов
Фактическая погода:

01 марта, 22:25
Температура: +7°C (+3.8*)
Ветер: западный 5 м/с
Давление: *748 мм
неб. 360 м
неб. облачность
720 м
разорв. обл.
930 м
слаб. дождь
морось
Время (МСК)Темп. СВетерВлажностьДавлениеОблачностьОсадки
21:00+8Ю, 3 м/с65%998 гПаоблачно
22:00+8Ю, 4 м/с69%998 гПаоблачнодождь
23:00+8ЮЗ, 4 м/с74%997 гПаоблачнодождь
02 марта
00:00+8ЮЗ, 5 м/с77%997 гПаоблачнодождь
01:00+8ЮЗ, 5 м/с79%997 гПаоблачнодождь
02:00+7ЮЗ, 6 м/с81%997 гПаоблачносл. дождь
03:00+7ЮЗ, 7 м/с84%997 гПаоблачно
04:00+7ЮЗ, 7 м/с88%997 гПаоблачносл. дождь
05:00+7ЮЗ, 7 м/с86%996 гПаоблачнодождь
06:00+7ЮЗ, 11 м/с74%996 гПаоблачнодождь
07:00+7ЮЗ, 13 м/с70%996 гПаоблачнодождь
08:00+6З, 14 м/с63%997 гПаоблачносл. дождь
09:00+6З, 15 м/с65%998 гПаоблачносл. дождь
10:00+6З, 15 м/с66%998 гПаоблачнодождь
11:00+6З, 14 м/с68%1000 гПаоблачнодождь
12:00+6З, 14 м/с68%1001 гПаоблачнодождь
13:00+6З, 13 м/с67%1003 гПаоблачнодождь
14:00+7З, 11 м/с70%1004 гПаоблачнодождь
15:00+7З, 11 м/с70%1005 гПаоблачно
16:00+8З, 11 м/с69%1006 гПаоблачно
17:00+8З, 10 м/с69%1007 гПаоблачно
18:00+8З, 9 м/с70%1007 гПаоблачно
19:00+8З, 9 м/с68%1008 гПаоблачно
20:00+8ЮЗ, 8 м/с72%1009 гПаоблачносл. дождь
21:00+7З, 7 м/с74%1010 гПас прояснениями
22:00+6ЮЗ, 4 м/с81%1011 гПаясно
23:00+6ЮЗ, 5 м/с82%1011 гПаясно
03 марта
00:00+6ЮЗ, 5 м/с77%1012 гПаясно
01:00+6ЮЗ, 5 м/с86%1012 гПаясно
02:00+6ЮЗ, 6 м/с86%1011 гПас прояснениями
03:00+6ЮЗ, 5 м/с86%1012 гПас прояснениями
04:00+5Ю, 4 м/с90%1011 гПаоблачно
05:00+4Ю, 4 м/с90%1011 гПаоблачно
06:00+4Ю, 5 м/с90%1010 гПаоблачно
07:00+4Ю, 5 м/с85%1009 гПаоблачно
08:00+4Ю, 5 м/с82%1009 гПаоблачно
09:00+4Ю, 5 м/с83%1008 гПаоблачно
10:00+4Ю, 4 м/с86%1008 гПаоблачно
11:00+5Ю, 5 м/с81%1007 гПаоблачно
12:00+7Ю, 5 м/с71%1007 гПаоблачно
13:00+8Ю, 7 м/с63%1006 гПаоблачно
14:00+9Ю, 7 м/с60%1005 гПаоблачносл. дождь
15:00+9Ю, 6 м/с62%1004 гПаоблачнодождь
16:00+9ЮВ, 5 м/с65%1003 гПаоблачнодождь
17:00+9ЮВ, 5 м/с69%1001 гПаоблачнодождь
18:00+8ЮВ, 5 м/с68%1000 гПаоблачносл. дождь
19:00+8ЮВ, 5 м/с72%999 гПаоблачнодождь
20:00+8ЮВ, 4 м/с76%999 гПаоблачнодождь
21:00+8ЮВ, 3 м/с77%998 гПаоблачно